sensor_id;sensor_type;location;lat;lon;timestamp;temperature;humidity
35637;DHT22;21758;43.542;1.462;2022-08-01T00:02:11;25.10;92.60
35637;DHT22;21758;43.542;1.462;2022-08-01T00:04:36;25.10;92.60
35637;DHT22;21758;43.542;1.462;2022-08-01T00:07:02;25.00;93.30
35637;DHT22;21758;43.542;1.462;2022-08-01T00:09:27;24.90;93.60
35637;DHT22;21758;43.542;1.462;2022-08-01T00:11:53;24.70;94.80
35637;DHT22;21758;43.542;1.462;2022-08-01T00:14:19;24.60;95.60
35637;DHT22;21758;43.542;1.462;2022-08-01T00:16:44;24.60;96.00
35637;DHT22;21758;43.542;1.462;2022-08-01T00:19:10;24.50;96.70
35637;DHT22;21758;43.542;1.462;2022-08-01T00:21:36;24.40;97.00
35637;DHT22;21758;43.542;1.462;2022-08-01T00:24:01;24.40;97.80
35637;DHT22;21758;43.542;1.462;2022-08-01T00:26:27;24.30;98.60
35637;DHT22;21758;43.542;1.462;2022-08-01T00:28:53;24.50;98.30
35637;DHT22;21758;43.542;1.462;2022-08-01T00:31:18;24.20;99.10
35637;DHT22;21758;43.542;1.462;2022-08-01T00:33:44;24.30;98.90
35637;DHT22;21758;43.542;1.462;2022-08-01T00:36:10;24.30;99.30
35637;DHT22;21758;43.542;1.462;2022-08-01T00:38:35;24.30;99.20
35637;DHT22;21758;43.542;1.462;2022-08-01T00:41:01;24.30;99.60
35637;DHT22;21758;43.542;1.462;2022-08-01T00:43:27;24.10;99.90
35637;DHT22;21758;43.542;1.462;2022-08-01T00:45:52;24.10;99.90
35637;DHT22;21758;43.542;1.462;2022-08-01T00:48:18;24.10;99.90
35637;DHT22;21758;43.542;1.462;2022-08-01T00:50:45;23.90;99.90
35637;DHT22;21758;43.542;1.462;2022-08-01T00:53:11;23.90;99.90
35637;DHT22;21758;43.542;1.462;2022-08-01T00:55:36;23.70;99.90
35637;DHT22;21758;43.542;1.462;2022-08-01T00:58:02;23.50;99.90
35637;DHT22;21758;43.542;1.462;2022-08-01T01:00:28;23.60;99.90
35637;DHT22;21758;43.542;1.462;2022-08-01T01:02:54;23.60;99.90
35637;DHT22;21758;43.542;1.462;2022-08-01T01:05:19;23.60;99.90
35637;DHT22;21758;43.542;1.462;2022-08-01T01:08:08;23.60;99.90
35637;DHT22;21758;43.542;1.462;2022-08-01T01:11:03;23.50;99.90
35637;DHT22;21758;43.542;1.462;2022-08-01T01:13:38;23.40;99.90
35637;DHT22;21758;43.542;1.462;2022-08-01T01:16:11;23.40;99.90
35637;DHT22;21758;43.542;1.462;2022-08-01T01:18:39;23.30;99.90
35637;DHT22;21758;43.542;1.462;2022-08-01T01:31:36;23.00;99.90
35637;DHT22;21758;43.542;1.462;2022-08-01T01:34:05;23.10;99.90
35637;DHT22;21758;43.542;1.462;2022-08-01T01:36:34;22.80;99.90
35637;DHT22;21758;43.542;1.462;2022-08-01T01:39:00;23.00;99.90
35637;DHT22;21758;43.542;1.462;2022-08-01T01:41:27;22.80;99.90
35637;DHT22;21758;43.542;1.462;2022-08-01T01:43:54;22.70;99.90
35637;DHT22;21758;43.542;1.462;2022-08-01T01:46:23;22.80;99.90
35637;DHT22;21758;43.542;1.462;2022-08-01T01:48:50;22.70;99.90
35637;DHT22;21758;43.542;1.462;2022-08-01T01:51:18;22.70;99.90
35637;DHT22;21758;43.542;1.462;2022-08-01T01:53:48;22.80;99.90
35637;DHT22;21758;43.542;1.462;2022-08-01T01:56:16;22.70;99.90
35637;DHT22;21758;43.542;1.462;2022-08-01T01:58:44;22.70;99.90
35637;DHT22;21758;43.542;1.462;2022-08-01T02:01:11;22.70;99.90
35637;DHT22;21758;43.542;1.462;2022-08-01T02:03:38;22.60;99.90
35637;DHT22;21758;43.542;1.462;2022-08-01T02:06:05;22.60;99.90
35637;DHT22;21758;43.542;1.462;2022-08-01T02:08:32;22.60;99.90
35637;DHT22;21758;43.542;1.462;2022-08-01T02:11:00;22.40;99.90
35637;DHT22;21758;43.542;1.462;2022-08-01T02:13:48;22.60;99.90
35637;DHT22;21758;43.542;1.462;2022-08-01T02:16:16;22.20;99.90
35637;DHT22;21758;43.542;1.462;2022-08-01T02:18:42;22.20;99.90
35637;DHT22;21758;43.542;1.462;2022-08-01T02:21:09;22.30;99.90
35637;DHT22;21758;43.542;1.462;2022-08-01T02:23:38;22.20;99.90
35637;DHT22;21758;43.542;1.462;2022-08-01T02:26:10;22.20;99.90
35637;DHT22;21758;43.542;1.462;2022-08-01T02:28:46;22.30;99.90
35637;DHT22;21758;43.542;1.462;2022-08-01T02:31:14;22.30;99.90
35637;DHT22;21758;43.542;1.462;2022-08-01T02:33:44;22.30;99.90
35637;DHT22;21758;43.542;1.462;2022-08-01T02:36:12;22.20;99.90
35637;DHT22;21758;43.542;1.462;2022-08-01T02:38:43;22.30;99.90
35637;DHT22;21758;43.542;1.462;2022-08-01T02:41:12;22.00;99.90
35637;DHT22;21758;43.542;1.462;2022-08-01T02:43:43;22.10;99.90
35637;DHT22;21758;43.542;1.462;2022-08-01T02:46:19;22.00;99.90
35637;DHT22;21758;43.542;1.462;2022-08-01T02:48:48;22.00;99.90
35637;DHT22;21758;43.542;1.462;2022-08-01T02:51:15;22.00;99.90
35637;DHT22;21758;43.542;1.462;2022-08-01T02:53:42;22.00;99.90
35637;DHT22;21758;43.542;1.462;2022-08-01T02:56:10;22.10;99.90
35637;DHT22;21758;43.542;1.462;2022-08-01T02:58:37;22.20;99.90
35637;DHT22;21758;43.542;1.462;2022-08-01T03:01:05;22.10;99.90
35637;DHT22;21758;43.542;1.462;2022-08-01T03:03:32;22.10;99.90
35637;DHT22;21758;43.542;1.462;2022-08-01T03:05:59;21.70;99.90
35637;DHT22;21758;43.542;1.462;2022-08-01T03:08:27;21.50;99.90
35637;DHT22;21758;43.542;1.462;2022-08-01T03:10:55;21.50;99.90
35637;DHT22;21758;43.542;1.462;2022-08-01T03:13:22;21.50;99.90
35637;DHT22;21758;43.542;1.462;2022-08-01T03:15:50;21.60;99.90
35637;DHT22;21758;43.542;1.462;2022-08-01T03:18:17;21.70;99.90
35637;DHT22;21758;43.542;1.462;2022-08-01T03:20:44;21.90;99.90
35637;DHT22;21758;43.542;1.462;2022-08-01T03:23:11;21.80;99.90
35637;DHT22;21758;43.542;1.462;2022-08-01T03:25:39;21.60;99.90
35637;DHT22;21758;43.542;1.462;2022-08-01T03:28:07;21.60;99.90
35637;DHT22;21758;43.542;1.462;2022-08-01T03:30:35;21.40;99.90
35637;DHT22;21758;43.542;1.462;2022-08-01T03:33:02;21.50;99.90
35637;DHT22;21758;43.542;1.462;2022-08-01T03:35:41;21.10;99.90
35637;DHT22;21758;43.542;1.462;2022-08-01T03:38:08;21.10;99.90
35637;DHT22;21758;43.542;1.462;2022-08-01T03:40:39;21.10;99.90
35637;DHT22;21758;43.542;1.462;2022-08-01T03:43:11;21.30;99.90
35637;DHT22;21758;43.542;1.462;2022-08-01T03:45:38;21.40;99.90
35637;DHT22;21758;43.542;1.462;2022-08-01T03:48:10;21.20;99.90
35637;DHT22;21758;43.542;1.462;2022-08-01T03:50:37;21.30;99.90
35637;DHT22;21758;43.542;1.462;2022-08-01T03:53:06;21.30;99.90
35637;DHT22;21758;43.542;1.462;2022-08-01T03:55:36;21.20;99.90
35637;DHT22;21758;43.542;1.462;2022-08-01T03:58:03;21.00;99.90
35637;DHT22;21758;43.542;1.462;2022-08-01T04:00:30;21.00;99.90
35637;DHT22;21758;43.542;1.462;2022-08-01T04:02:56;21.20;99.90
35637;DHT22;21758;43.542;1.462;2022-08-01T04:05:22;21.10;99.90
35637;DHT22;21758;43.542;1.462;2022-08-01T04:07:49;21.10;99.90
35637;DHT22;21758;43.542;1.462;2022-08-01T04:10:24;21.00;99.90
35637;DHT22;21758;43.542;1.462;2022-08-01T04:12:50;20.70;99.90
35637;DHT22;21758;43.542;1.462;2022-08-01T04:15:16;20.80;99.90
35637;DHT22;21758;43.542;1.462;2022-08-01T04:17:41;20.90;99.90
35637;DHT22;21758;43.542;1.462;2022-08-01T04:20:08;21.00;99.90
35637;DHT22;21758;43.542;1.462;2022-08-01T04:22:33;20.70;99.90
35637;DHT22;21758;43.542;1.462;2022-08-01T04:25:02;20.60;99.90
35637;DHT22;21758;43.542;1.462;2022-08-01T04:27:32;20.60;99.90
35637;DHT22;21758;43.542;1.462;2022-08-01T04:30:01;20.70;99.90
35637;DHT22;21758;43.542;1.462;2022-08-01T04:32:30;20.70;99.90
35637;DHT22;21758;43.542;1.462;2022-08-01T04:34:58;20.60;99.90
35637;DHT22;21758;43.542;1.462;2022-08-01T04:37:26;20.70;99.90
35637;DHT22;21758;43.542;1.462;2022-08-01T04:39:55;20.60;99.90
35637;DHT22;21758;43.542;1.462;2022-08-01T04:42:22;20.70;99.90
35637;DHT22;21758;43.542;1.462;2022-08-01T04:44:47;20.70;99.90
35637;DHT22;21758;43.542;1.462;2022-08-01T04:47:13;20.90;99.90
35637;DHT22;21758;43.542;1.462;2022-08-01T04:49:40;20.80;99.90
35637;DHT22;21758;43.542;1.462;2022-08-01T04:52:06;20.80;99.90
35637;DHT22;21758;43.542;1.462;2022-08-01T04:54:34;20.60;99.90
35637;DHT22;21758;43.542;1.462;2022-08-01T04:57:03;20.40;99.90
35637;DHT22;21758;43.542;1.462;2022-08-01T04:59:30;20.40;99.90
35637;DHT22;21758;43.542;1.462;2022-08-01T05:02:06;20.40;99.90
35637;DHT22;21758;43.542;1.462;2022-08-01T05:04:33;20.70;99.90
35637;DHT22;21758;43.542;1.462;2022-08-01T05:06:58;20.70;99.90
35637;DHT22;21758;43.542;1.462;2022-08-01T05:09:25;20.70;99.90
35637;DHT22;21758;43.542;1.462;2022-08-01T05:11:51;20.50;99.90
35637;DHT22;21758;43.542;1.462;2022-08-01T05:14:17;20.50;99.90
35637;DHT22;21758;43.542;1.462;2022-08-01T05:16:42;20.60;99.90
35637;DHT22;21758;43.542;1.462;2022-08-01T05:19:08;20.60;99.90
35637;DHT22;21758;43.542;1.462;2022-08-01T05:21:34;20.70;99.90
35637;DHT22;21758;43.542;1.462;2022-08-01T05:24:00;20.70;99.90
35637;DHT22;21758;43.542;1.462;2022-08-01T05:26:26;20.80;99.90
35637;DHT22;21758;43.542;1.462;2022-08-01T05:28:52;20.80;99.90
35637;DHT22;21758;43.542;1.462;2022-08-01T05:31:18;20.70;99.90
35637;DHT22;21758;43.542;1.462;2022-08-01T05:33:43;20.70;99.90
35637;DHT22;21758;43.542;1.462;2022-08-01T05:36:09;20.70;99.90
35637;DHT22;21758;43.542;1.462;2022-08-01T05:38:35;20.80;99.90
35637;DHT22;21758;43.542;1.462;2022-08-01T05:41:00;20.80;99.90
35637;DHT22;21758;43.542;1.462;2022-08-01T05:43:26;20.70;99.90
35637;DHT22;21758;43.542;1.462;2022-08-01T05:45:52;20.60;99.90
35637;DHT22;21758;43.542;1.462;2022-08-01T05:48:17;20.70;99.90
35637;DHT22;21758;43.542;1.462;2022-08-01T05:50:43;20.60;99.90
35637;DHT22;21758;43.542;1.462;2022-08-01T05:53:08;20.70;99.90
35637;DHT22;21758;43.542;1.462;2022-08-01T05:55:35;20.80;99.90
35637;DHT22;21758;43.542;1.462;2022-08-01T05:58:01;20.90;99.90
35637;DHT22;21758;43.542;1.462;2022-08-01T06:00:26;21.00;99.90
35637;DHT22;21758;43.542;1.462;2022-08-01T06:02:52;21.00;99.90
35637;DHT22;21758;43.542;1.462;2022-08-01T06:05:18;21.10;99.90
35637;DHT22;21758;43.542;1.462;2022-08-01T06:07:43;21.00;99.90
35637;DHT22;21758;43.542;1.462;2022-08-01T06:10:09;21.10;99.90
35637;DHT22;21758;43.542;1.462;2022-08-01T06:12:36;21.10;99.90
35637;DHT22;21758;43.542;1.462;2022-08-01T06:15:03;21.20;99.90
35637;DHT22;21758;43.542;1.462;2022-08-01T06:17:29;21.30;99.90
35637;DHT22;21758;43.542;1.462;2022-08-01T06:19:54;21.30;99.90
35637;DHT22;21758;43.542;1.462;2022-08-01T06:22:21;21.40;99.90
35637;DHT22;21758;43.542;1.462;2022-08-01T06:24:47;21.40;99.90
35637;DHT22;21758;43.542;1.462;2022-08-01T06:27:12;21.40;99.90
35637;DHT22;21758;43.542;1.462;2022-08-01T06:29:38;21.50;99.90
35637;DHT22;21758;43.542;1.462;2022-08-01T06:32:04;21.60;99.90
35637;DHT22;21758;43.542;1.462;2022-08-01T06:34:30;21.60;99.90
35637;DHT22;21758;43.542;1.462;2022-08-01T06:36:56;21.70;99.90
35637;DHT22;21758;43.542;1.462;2022-08-01T06:39:21;21.70;99.90
35637;DHT22;21758;43.542;1.462;2022-08-01T06:41:47;21.80;99.90
35637;DHT22;21758;43.542;1.462;2022-08-01T06:44:13;21.90;99.90
35637;DHT22;21758;43.542;1.462;2022-08-01T06:46:39;21.90;99.90
35637;DHT22;21758;43.542;1.462;2022-08-01T06:49:05;22.00;99.90
35637;DHT22;21758;43.542;1.462;2022-08-01T06:51:30;22.00;99.90
35637;DHT22;21758;43.542;1.462;2022-08-01T06:53:56;22.00;99.90
35637;DHT22;21758;43.542;1.462;2022-08-01T06:56:22;22.10;99.90
35637;DHT22;21758;43.542;1.462;2022-08-01T06:58:49;22.10;99.90
35637;DHT22;21758;43.542;1.462;2022-08-01T07:01:15;22.20;99.90
35637;DHT22;21758;43.542;1.462;2022-08-01T07:03:41;22.30;99.90
35637;DHT22;21758;43.542;1.462;2022-08-01T07:06:06;22.30;99.90
35637;DHT22;21758;43.542;1.462;2022-08-01T07:08:32;22.40;99.90
35637;DHT22;21758;43.542;1.462;2022-08-01T07:10:57;22.50;99.90
35637;DHT22;21758;43.542;1.462;2022-08-01T07:13:28;22.60;99.90
35637;DHT22;21758;43.542;1.462;2022-08-01T07:15:56;22.60;99.90
35637;DHT22;21758;43.542;1.462;2022-08-01T07:18:22;22.60;99.90
35637;DHT22;21758;43.542;1.462;2022-08-01T07:20:48;22.70;99.90
35637;DHT22;21758;43.542;1.462;2022-08-01T07:23:15;22.80;99.90
35637;DHT22;21758;43.542;1.462;2022-08-01T07:25:41;22.80;99.90
35637;DHT22;21758;43.542;1.462;2022-08-01T07:28:07;22.80;99.90
35637;DHT22;21758;43.542;1.462;2022-08-01T07:30:33;22.90;99.90
35637;DHT22;21758;43.542;1.462;2022-08-01T07:32:59;22.90;99.90
35637;DHT22;21758;43.542;1.462;2022-08-01T07:35:25;23.00;99.90
35637;DHT22;21758;43.542;1.462;2022-08-01T07:37:50;23.10;99.90
35637;DHT22;21758;43.542;1.462;2022-08-01T07:40:17;23.10;99.90
35637;DHT22;21758;43.542;1.462;2022-08-01T07:42:43;23.20;99.90
35637;DHT22;21758;43.542;1.462;2022-08-01T07:45:10;23.30;99.90
35637;DHT22;21758;43.542;1.462;2022-08-01T07:47:37;23.40;99.90
35637;DHT22;21758;43.542;1.462;2022-08-01T07:50:04;23.40;99.90
35637;DHT22;21758;43.542;1.462;2022-08-01T07:52:30;23.50;99.90
35637;DHT22;21758;43.542;1.462;2022-08-01T07:54:57;23.50;99.90
35637;DHT22;21758;43.542;1.462;2022-08-01T07:57:24;23.50;99.90
35637;DHT22;21758;43.542;1.462;2022-08-01T07:59:51;23.70;99.90
35637;DHT22;21758;43.542;1.462;2022-08-01T08:02:16;23.80;99.90
35637;DHT22;21758;43.542;1.462;2022-08-01T08:04:42;23.90;99.90
35637;DHT22;21758;43.542;1.462;2022-08-01T08:07:08;24.00;99.90
35637;DHT22;21758;43.542;1.462;2022-08-01T08:09:34;24.10;99.90
35637;DHT22;21758;43.542;1.462;2022-08-01T08:11:59;24.10;99.90
35637;DHT22;21758;43.542;1.462;2022-08-01T08:14:25;24.20;99.90
35637;DHT22;21758;43.542;1.462;2022-08-01T08:16:51;24.50;99.90
35637;DHT22;21758;43.542;1.462;2022-08-01T08:19:17;24.70;99.90
35637;DHT22;21758;43.542;1.462;2022-08-01T08:21:43;24.90;99.90
35637;DHT22;21758;43.542;1.462;2022-08-01T08:24:09;25.00;99.90
35637;DHT22;21758;43.542;1.462;2022-08-01T08:26:45;25.30;99.90
35637;DHT22;21758;43.542;1.462;2022-08-01T08:29:10;25.50;99.90
35637;DHT22;21758;43.542;1.462;2022-08-01T08:31:36;25.80;99.50
35637;DHT22;21758;43.542;1.462;2022-08-01T08:34:02;26.00;98.90
35637;DHT22;21758;43.542;1.462;2022-08-01T08:36:27;26.30;97.80
35637;DHT22;21758;43.542;1.462;2022-08-01T08:38:53;26.50;96.70
35637;DHT22;21758;43.542;1.462;2022-08-01T08:41:19;26.70;96.20
35637;DHT22;21758;43.542;1.462;2022-08-01T08:43:44;26.80;95.50
35637;DHT22;21758;43.542;1.462;2022-08-01T08:46:11;27.10;94.30
35637;DHT22;21758;43.542;1.462;2022-08-01T08:48:39;27.20;94.20
35637;DHT22;21758;43.542;1.462;2022-08-01T08:51:06;27.30;93.70
35637;DHT22;21758;43.542;1.462;2022-08-01T08:53:34;27.60;93.60
35637;DHT22;21758;43.542;1.462;2022-08-01T08:56:02;27.70;92.60
35637;DHT22;21758;43.542;1.462;2022-08-01T08:58:30;27.80;91.90
35637;DHT22;21758;43.542;1.462;2022-08-01T09:00:59;27.90;92.40
35637;DHT22;21758;43.542;1.462;2022-08-01T09:03:25;28.30;90.90
35637;DHT22;21758;43.542;1.462;2022-08-01T09:05:51;27.90;91.90
35637;DHT22;21758;43.542;1.462;2022-08-01T09:08:17;28.10;91.70
35637;DHT22;21758;43.542;1.462;2022-08-01T09:10:42;28.50;90.60
35637;DHT22;21758;43.542;1.462;2022-08-01T09:13:13;28.70;88.70
35637;DHT22;21758;43.542;1.462;2022-08-01T09:15:51;28.90;87.50
35637;DHT22;21758;43.542;1.462;2022-08-01T09:18:36;29.20;86.00
35637;DHT22;21758;43.542;1.462;2022-08-01T09:21:21;29.40;84.30
35637;DHT22;21758;43.542;1.462;2022-08-01T09:23:54;29.20;83.40
35637;DHT22;21758;43.542;1.462;2022-08-01T09:26:34;29.10;84.00
35637;DHT22;21758;43.542;1.462;2022-08-01T09:29:06;29.20;83.60
35637;DHT22;21758;43.542;1.462;2022-08-01T09:31:42;29.20;81.30
35637;DHT22;21758;43.542;1.462;2022-08-01T09:34:08;29.60;81.50
35637;DHT22;21758;43.542;1.462;2022-08-01T09:36:51;29.70;80.40
35637;DHT22;21758;43.542;1.462;2022-08-01T09:39:18;30.00;79.00
35637;DHT22;21758;43.542;1.462;2022-08-01T09:41:45;30.30;76.90
35637;DHT22;21758;43.542;1.462;2022-08-01T09:44:12;30.40;75.90
35637;DHT22;21758;43.542;1.462;2022-08-01T09:46:49;30.20;75.60
35637;DHT22;21758;43.542;1.462;2022-08-01T09:49:27;30.50;75.50
35637;DHT22;21758;43.542;1.462;2022-08-01T09:51:53;30.30;74.40
35637;DHT22;21758;43.542;1.462;2022-08-01T09:54:32;30.30;76.20
35637;DHT22;21758;43.542;1.462;2022-08-01T09:57:16;30.40;73.90
35637;DHT22;21758;43.542;1.462;2022-08-01T09:59:44;31.00;73.20
35637;DHT22;21758;43.542;1.462;2022-08-01T10:02:11;30.70;72.20
35637;DHT22;21758;43.542;1.462;2022-08-01T10:04:46;30.70;73.30
35637;DHT22;21758;43.542;1.462;2022-08-01T10:07:13;30.80;72.50
35637;DHT22;21758;43.542;1.462;2022-08-01T10:09:41;30.90;71.10
35637;DHT22;21758;43.542;1.462;2022-08-01T10:12:09;30.90;70.10
35637;DHT22;21758;43.542;1.462;2022-08-01T10:14:36;30.90;70.40
35637;DHT22;21758;43.542;1.462;2022-08-01T10:17:02;31.10;70.60
35637;DHT22;21758;43.542;1.462;2022-08-01T10:19:29;31.30;70.00
35637;DHT22;21758;43.542;1.462;2022-08-01T10:21:56;31.60;68.20
35637;DHT22;21758;43.542;1.462;2022-08-01T10:24:23;31.40;67.70
35637;DHT22;21758;43.542;1.462;2022-08-01T10:26:52;31.60;67.50
35637;DHT22;21758;43.542;1.462;2022-08-01T10:29:20;31.50;66.70
35637;DHT22;21758;43.542;1.462;2022-08-01T10:31:47;31.70;67.10
35637;DHT22;21758;43.542;1.462;2022-08-01T10:34:16;31.70;64.10
35637;DHT22;21758;43.542;1.462;2022-08-01T10:36:47;31.40;63.50
35637;DHT22;21758;43.542;1.462;2022-08-01T10:39:13;31.30;63.20
35637;DHT22;21758;43.542;1.462;2022-08-01T10:41:39;31.60;63.50
35637;DHT22;21758;43.542;1.462;2022-08-01T10:44:09;31.70;62.80
35637;DHT22;21758;43.542;1.462;2022-08-01T10:46:42;31.70;62.40
35637;DHT22;21758;43.542;1.462;2022-08-01T10:49:13;31.80;63.20
35637;DHT22;21758;43.542;1.462;2022-08-01T10:51:40;31.70;63.00
35637;DHT22;21758;43.542;1.462;2022-08-01T10:54:08;32.00;62.10
35637;DHT22;21758;43.542;1.462;2022-08-01T10:56:47;31.90;62.10
35637;DHT22;21758;43.542;1.462;2022-08-01T10:59:24;31.90;60.70
35637;DHT22;21758;43.542;1.462;2022-08-01T11:01:59;32.10;60.80
35637;DHT22;21758;43.542;1.462;2022-08-01T11:07:18;32.50;59.90
35637;DHT22;21758;43.542;1.462;2022-08-01T11:09:47;32.50;58.10
35637;DHT22;21758;43.542;1.462;2022-08-01T11:12:15;32.40;58.90
35637;DHT22;21758;43.542;1.462;2022-08-01T11:20:25;32.40;55.50
35637;DHT22;21758;43.542;1.462;2022-08-01T11:28:24;32.60;56.00
35637;DHT22;21758;43.542;1.462;2022-08-01T11:31:24;32.70;55.00
35637;DHT22;21758;43.542;1.462;2022-08-01T11:38:37;32.90;54.10
35637;DHT22;21758;43.542;1.462;2022-08-01T11:41:32;32.80;53.90
35637;DHT22;21758;43.542;1.462;2022-08-01T11:44:07;33.00;53.00
35637;DHT22;21758;43.542;1.462;2022-08-01T11:52:27;33.10;51.00
35637;DHT22;21758;43.542;1.462;2022-08-01T11:57:31;33.20;49.20
35637;DHT22;21758;43.542;1.462;2022-08-01T12:00:03;33.70;47.80
35637;DHT22;21758;43.542;1.462;2022-08-01T12:02:31;33.70;46.40
35637;DHT22;21758;43.542;1.462;2022-08-01T12:05:07;33.40;47.90
35637;DHT22;21758;43.542;1.462;2022-08-01T12:07:35;33.40;47.10
35637;DHT22;21758;43.542;1.462;2022-08-01T12:10:05;33.70;46.80
35637;DHT22;21758;43.542;1.462;2022-08-01T12:12:32;33.50;47.10
35637;DHT22;21758;43.542;1.462;2022-08-01T12:15:00;33.60;46.30
35637;DHT22;21758;43.542;1.462;2022-08-01T12:17:46;33.50;46.30
35637;DHT22;21758;43.542;1.462;2022-08-01T12:20:20;33.80;45.90
35637;DHT22;21758;43.542;1.462;2022-08-01T12:22:46;34.00;44.10
35637;DHT22;21758;43.542;1.462;2022-08-01T12:25:14;33.90;44.30
35637;DHT22;21758;43.542;1.462;2022-08-01T12:27:41;34.20;43.70
35637;DHT22;21758;43.542;1.462;2022-08-01T12:30:12;34.30;44.40
35637;DHT22;21758;43.542;1.462;2022-08-01T12:32:39;33.90;42.90
35637;DHT22;21758;43.542;1.462;2022-08-01T12:35:06;33.80;42.60
35637;DHT22;21758;43.542;1.462;2022-08-01T12:38:07;33.70;43.20
35637;DHT22;21758;43.542;1.462;2022-08-01T12:40:35;33.90;43.70
35637;DHT22;21758;43.542;1.462;2022-08-01T12:43:04;34.10;43.40
35637;DHT22;21758;43.542;1.462;2022-08-01T12:45:37;33.80;42.60
35637;DHT22;21758;43.542;1.462;2022-08-01T12:48:15;33.60;41.30
35637;DHT22;21758;43.542;1.462;2022-08-01T12:50:43;33.70;42.80
35637;DHT22;21758;43.542;1.462;2022-08-01T12:53:10;33.60;38.90
35637;DHT22;21758;43.542;1.462;2022-08-01T12:55:46;33.90;38.20
35637;DHT22;21758;43.542;1.462;2022-08-01T12:58:14;34.10;40.00
35637;DHT22;21758;43.542;1.462;2022-08-01T13:00:42;33.90;41.00
35637;DHT22;21758;43.542;1.462;2022-08-01T13:03:13;34.00;40.90
35637;DHT22;21758;43.542;1.462;2022-08-01T13:10:42;33.60;39.20
35637;DHT22;21758;43.542;1.462;2022-08-01T13:13:08;33.90;40.00
35637;DHT22;21758;43.542;1.462;2022-08-01T13:15:37;33.70;41.20
35637;DHT22;21758;43.542;1.462;2022-08-01T13:21:14;33.80;38.00
35637;DHT22;21758;43.542;1.462;2022-08-01T13:29:09;34.10;38.40
35637;DHT22;21758;43.542;1.462;2022-08-01T13:31:37;34.10;36.20
35637;DHT22;21758;43.542;1.462;2022-08-01T13:34:03;34.10;35.80
35637;DHT22;21758;43.542;1.462;2022-08-01T13:36:29;34.00;34.80
35637;DHT22;21758;43.542;1.462;2022-08-01T13:38:57;34.10;35.70
35637;DHT22;21758;43.542;1.462;2022-08-01T13:41:41;33.90;35.70
35637;DHT22;21758;43.542;1.462;2022-08-01T13:44:08;33.90;35.10
35637;DHT22;21758;43.542;1.462;2022-08-01T13:46:34;34.00;35.00
35637;DHT22;21758;43.542;1.462;2022-08-01T13:49:01;34.20;33.90
35637;DHT22;21758;43.542;1.462;2022-08-01T13:51:28;34.00;34.50
35637;DHT22;21758;43.542;1.462;2022-08-01T13:53:54;34.20;34.20
35637;DHT22;21758;43.542;1.462;2022-08-01T13:56:20;34.30;33.00
35637;DHT22;21758;43.542;1.462;2022-08-01T13:58:46;34.20;33.20
35637;DHT22;21758;43.542;1.462;2022-08-01T14:01:12;34.00;34.20
35637;DHT22;21758;43.542;1.462;2022-08-01T14:03:38;33.80;33.80
35637;DHT22;21758;43.542;1.462;2022-08-01T14:06:04;34.00;33.70
35637;DHT22;21758;43.542;1.462;2022-08-01T14:08:30;34.10;32.60
35637;DHT22;21758;43.542;1.462;2022-08-01T14:10:56;34.10;32.00
35637;DHT22;21758;43.542;1.462;2022-08-01T14:13:28;33.80;31.30
35637;DHT22;21758;43.542;1.462;2022-08-01T14:15:54;33.70;31.80
35637;DHT22;21758;43.542;1.462;2022-08-01T14:18:19;33.80;31.10
35637;DHT22;21758;43.542;1.462;2022-08-01T14:20:46;33.80;30.60
35637;DHT22;21758;43.542;1.462;2022-08-01T14:23:12;33.80;30.30
35637;DHT22;21758;43.542;1.462;2022-08-01T14:25:38;33.90;30.70
35637;DHT22;21758;43.542;1.462;2022-08-01T14:28:04;33.90;30.10
35637;DHT22;21758;43.542;1.462;2022-08-01T14:30:32;33.90;29.70
35637;DHT22;21758;43.542;1.462;2022-08-01T14:32:58;33.80;29.60
35637;DHT22;21758;43.542;1.462;2022-08-01T14:35:23;33.80;31.30
35637;DHT22;21758;43.542;1.462;2022-08-01T14:37:49;33.80;32.00
35637;DHT22;21758;43.542;1.462;2022-08-01T14:40:15;34.00;32.00
35637;DHT22;21758;43.542;1.462;2022-08-01T14:42:40;33.80;31.50
35637;DHT22;21758;43.542;1.462;2022-08-01T14:45:07;34.00;32.30
35637;DHT22;21758;43.542;1.462;2022-08-01T14:47:37;34.10;31.70
35637;DHT22;21758;43.542;1.462;2022-08-01T14:50:05;34.00;31.20
35637;DHT22;21758;43.542;1.462;2022-08-01T14:52:32;34.20;31.60
35637;DHT22;21758;43.542;1.462;2022-08-01T14:54:58;34.30;30.90
35637;DHT22;21758;43.542;1.462;2022-08-01T14:57:24;34.00;30.50
35637;DHT22;21758;43.542;1.462;2022-08-01T14:59:49;33.80;29.90
35637;DHT22;21758;43.542;1.462;2022-08-01T15:02:21;33.90;29.50
35637;DHT22;21758;43.542;1.462;2022-08-01T15:04:48;33.80;30.00
35637;DHT22;21758;43.542;1.462;2022-08-01T15:07:14;34.00;30.80
35637;DHT22;21758;43.542;1.462;2022-08-01T15:09:40;34.10;30.80
35637;DHT22;21758;43.542;1.462;2022-08-01T15:12:06;34.10;30.70
35637;DHT22;21758;43.542;1.462;2022-08-01T15:14:32;33.90;30.50
35637;DHT22;21758;43.542;1.462;2022-08-01T15:19:49;33.70;28.20
35637;DHT22;21758;43.542;1.462;2022-08-01T15:22:16;33.60;28.10
35637;DHT22;21758;43.542;1.462;2022-08-01T15:24:42;33.80;28.10
35637;DHT22;21758;43.542;1.462;2022-08-01T15:27:09;33.80;28.70
35637;DHT22;21758;43.542;1.462;2022-08-01T15:29:35;33.90;27.40
35637;DHT22;21758;43.542;1.462;2022-08-01T15:32:03;33.60;27.60
35637;DHT22;21758;43.542;1.462;2022-08-01T15:34:30;33.80;27.20
35637;DHT22;21758;43.542;1.462;2022-08-01T15:36:57;34.00;27.00
35637;DHT22;21758;43.542;1.462;2022-08-01T15:39:23;34.00;27.20
35637;DHT22;21758;43.542;1.462;2022-08-01T15:41:49;33.90;27.50
35637;DHT22;21758;43.542;1.462;2022-08-01T15:44:15;33.80;26.20
35637;DHT22;21758;43.542;1.462;2022-08-01T15:46:43;33.70;26.10
35637;DHT22;21758;43.542;1.462;2022-08-01T15:49:09;33.70;26.20
35637;DHT22;21758;43.542;1.462;2022-08-01T15:51:36;33.80;26.30
35637;DHT22;21758;43.542;1.462;2022-08-01T15:54:01;33.80;26.40
35637;DHT22;21758;43.542;1.462;2022-08-01T15:56:29;33.70;26.40
35637;DHT22;21758;43.542;1.462;2022-08-01T15:58:55;33.70;26.90
35637;DHT22;21758;43.542;1.462;2022-08-01T16:01:21;33.60;26.20
35637;DHT22;21758;43.542;1.462;2022-08-01T16:03:47;33.70;25.70
35637;DHT22;21758;43.542;1.462;2022-08-01T16:06:13;33.80;25.70
35637;DHT22;21758;43.542;1.462;2022-08-01T16:08:38;33.80;25.40
35637;DHT22;21758;43.542;1.462;2022-08-01T16:11:04;33.90;25.10
35637;DHT22;21758;43.542;1.462;2022-08-01T16:13:30;33.80;24.40
35637;DHT22;21758;43.542;1.462;2022-08-01T16:15:55;33.70;24.30
35637;DHT22;21758;43.542;1.462;2022-08-01T16:18:21;33.70;24.60
35637;DHT22;21758;43.542;1.462;2022-08-01T16:20:47;33.80;24.00
35637;DHT22;21758;43.542;1.462;2022-08-01T16:23:14;33.70;22.60
35637;DHT22;21758;43.542;1.462;2022-08-01T16:25:40;33.80;23.80
35637;DHT22;21758;43.542;1.462;2022-08-01T16:28:05;33.60;24.00
35637;DHT22;21758;43.542;1.462;2022-08-01T16:30:31;33.50;24.50